createdAt,value
2016-05-19T00:00:18.807Z,0
2016-05-19T00:01:18.872Z,0
2016-05-19T00:02:18.875Z,0
2016-05-19T00:03:19.315Z,0
2016-05-19T00:04:18.708Z,0
2016-05-19T00:05:33.429Z,0
2016-05-19T00:06:19.447Z,0
2016-05-19T00:07:20.794Z,0
2016-05-19T00:08:19.016Z,0
2016-05-19T00:09:18.847Z,0
2016-05-19T00:10:19.443Z,0
2016-05-19T00:11:18.680Z,0
2016-05-19T00:12:19.073Z,0
2016-05-19T00:13:18.686Z,0
2016-05-19T00:14:18.845Z,0
2016-05-19T00:15:19.628Z,0
2016-05-19T00:17:20.228Z,0
2016-05-19T00:18:18.918Z,0
2016-05-19T00:19:19.296Z,0
2016-05-19T00:20:19.032Z,0
2016-05-19T00:21:19.394Z,0
2016-05-19T00:22:19.038Z,0
2016-05-19T00:23:19.181Z,0
2016-05-19T00:24:18.825Z,0
2016-05-19T00:25:18.812Z,0
2016-05-19T00:26:18.814Z,0
2016-05-19T00:27:18.817Z,0
2016-05-19T00:28:18.820Z,0
2016-05-19T00:29:18.807Z,0
2016-05-19T00:30:18.653Z,0
2016-05-19T00:31:18.796Z,0
2016-05-19T00:32:18.658Z,0
2016-05-19T00:33:18.801Z,0
2016-05-19T00:34:18.804Z,0
2016-05-19T00:35:18.651Z,0
2016-05-19T00:36:18.826Z,0
2016-05-19T00:37:18.640Z,0
2016-05-19T00:38:18.643Z,0
2016-05-19T00:39:18.787Z,0
2016-05-19T00:40:18.633Z,0
2016-05-19T00:41:18.792Z,0
2016-05-19T00:42:18.779Z,0
2016-05-19T00:43:18.625Z,0
2016-05-19T00:44:18.628Z,0
2016-05-19T00:45:18.616Z,0
2016-05-19T00:46:18.618Z,0
2016-05-19T00:47:18.777Z,0
2016-05-19T00:48:18.764Z,0
2016-05-19T00:49:18.766Z,0
2016-05-19T00:50:18.754Z,0
2016-05-19T00:51:18.632Z,0
2016-05-19T00:52:18.602Z,0
2016-05-19T00:53:18.918Z,0
2016-05-19T00:54:18.593Z,0
2016-05-19T00:55:18.596Z,0
2016-05-19T00:56:18.739Z,0
2016-05-19T00:57:18.757Z,0
2016-05-19T00:58:18.743Z,0
2016-05-19T00:59:18.747Z,0
2016-05-19T01:00:18.749Z,0
2016-05-19T01:01:18.751Z,0
2016-05-19T01:02:18.579Z,0
2016-05-19T01:03:18.582Z,0
2016-05-19T01:04:18.726Z,0
2016-05-19T01:05:18.573Z,0
2016-05-19T01:06:18.576Z,0
2016-05-19T01:07:18.718Z,0
2016-05-19T01:08:18.846Z,0
2016-05-19T01:09:18.724Z,0
2016-05-19T01:10:18.711Z,0
2016-05-19T01:11:18.714Z,0
2016-05-19T01:12:20.156Z,0
2016-05-19T01:13:19.000Z,0
2016-05-19T01:14:19.147Z,0
2016-05-19T01:15:18.709Z,0
2016-05-19T01:16:19.039Z,0
2016-05-19T01:17:18.714Z,0
2016-05-19T01:18:18.702Z,0
2016-05-19T01:19:18.689Z,0
2016-05-19T01:20:18.691Z,0
2016-05-19T01:21:20.947Z,0
2016-05-19T01:22:19.841Z,0
2016-05-19T01:23:18.950Z,0
2016-05-19T01:24:33.126Z,0
2016-05-19T01:25:36.723Z,0
2016-05-19T01:26:18.973Z,0
2016-05-19T01:27:18.819Z,0
2016-05-19T01:28:19.606Z,0
2016-05-19T01:29:18.887Z,0
2016-05-19T01:30:18.859Z,0
2016-05-19T01:31:18.658Z,0
2016-05-19T01:32:18.676Z,0
2016-05-19T01:33:18.663Z,0
2016-05-19T01:34:19.887Z,0
2016-05-19T01:35:19.137Z,0
2016-05-19T01:36:20.268Z,0
2016-05-19T01:37:18.643Z,0
2016-05-19T01:38:19.723Z,0
2016-05-19T01:39:19.368Z,0
2016-05-19T01:40:18.900Z,0
2016-05-19T01:41:18.653Z,0
2016-05-19T01:42:18.641Z,0
2016-05-19T01:43:18.644Z,0
2016-05-19T01:44:18.647Z,0
2016-05-19T01:45:18.634Z,0
2016-05-19T01:46:18.652Z,0
2016-05-19T01:47:18.311Z,0
2016-05-19T01:48:18.625Z,0
2016-05-19T01:49:18.628Z,0
2016-05-19T01:50:18.631Z,0
2016-05-19T01:51:18.619Z,0
2016-05-19T01:52:18.605Z,0
2016-05-19T01:53:18.483Z,0
2016-05-19T01:54:18.627Z,0
2016-05-19T01:55:18.597Z,0
2016-05-19T01:56:18.600Z,0
2016-05-19T01:57:18.463Z,0
2016-05-19T01:58:18.449Z,0
2016-05-19T01:59:18.593Z,0
2016-05-19T02:00:18.596Z,0
2016-05-19T02:01:18.598Z,0
2016-05-19T02:02:18.585Z,0
2016-05-19T02:03:18.587Z,0
2016-05-19T02:04:18.575Z,0
2016-05-19T02:05:18.579Z,0
2016-05-19T02:06:18.581Z,0
2016-05-19T02:07:18.583Z,0
2016-05-19T02:08:18.773Z,0
2016-05-19T02:09:18.589Z,0
2016-05-19T02:10:18.560Z,0
2016-05-19T02:11:18.423Z,0
2016-05-19T02:12:18.581Z,0
2016-05-19T02:13:18.568Z,0
2016-05-19T02:14:18.587Z,0
2016-05-19T02:15:18.558Z,0
2016-05-19T02:16:18.420Z,0
2016-05-19T02:17:18.563Z,0
2016-05-19T02:18:18.550Z,0
2016-05-19T02:19:18.553Z,0
2016-05-19T02:20:18.399Z,0
2016-05-19T02:21:18.558Z,0
2016-05-19T02:22:18.545Z,0
2016-05-19T02:23:18.516Z,0
2016-05-19T02:24:18.668Z,0
2016-05-19T02:25:18.389Z,0
2016-05-19T02:26:18.377Z,0
2016-05-19T02:27:18.394Z,0
2016-05-19T02:28:18.538Z,0
2016-05-19T02:29:18.525Z,4
2016-05-19T02:30:18.200Z,4
2016-05-19T02:31:32.549Z,0
2016-05-19T02:32:46.863Z,4
2016-05-19T02:33:19.332Z,4
2016-05-19T02:34:18.523Z,4
2016-05-19T02:35:18.666Z,0
2016-05-19T02:36:18.357Z,4
2016-05-19T02:37:18.515Z,4
2016-05-19T02:38:18.940Z,4
2016-05-19T02:39:18.505Z,8
2016-05-19T02:40:20.336Z,8
2016-05-19T02:41:18.523Z,4
2016-05-19T02:42:19.163Z,8
2016-05-19T02:43:19.209Z,12
2016-05-19T02:44:20.256Z,12
2016-05-19T02:45:19.114Z,12
2016-05-19T02:46:18.657Z,12
2016-05-19T02:47:19.301Z,16
2016-05-19T02:48:19.536Z,16
2016-05-19T02:49:18.602Z,20
2016-05-19T02:50:19.214Z,24
2016-05-19T02:51:18.772Z,24
2016-05-19T02:52:18.765Z,28
2016-05-19T02:53:18.509Z,32
2016-05-19T02:54:19.719Z,36
2016-05-19T02:55:20.103Z,40
2016-05-19T02:56:19.718Z,44
2016-05-19T02:57:18.895Z,44
2016-05-19T02:58:19.508Z,48
2016-05-19T02:59:18.467Z,52
2016-05-19T03:00:18.472Z,56
2016-05-19T03:01:18.522Z,60
2016-05-19T03:02:18.775Z,68
2016-05-19T03:03:18.778Z,72
2016-05-19T03:04:18.767Z,76
2016-05-19T03:05:18.770Z,80
2016-05-19T03:06:18.789Z,92
2016-05-19T03:07:18.605Z,96
2016-05-19T03:08:18.779Z,104
2016-05-19T03:09:18.611Z,108
2016-05-19T03:10:18.441Z,116
2016-05-19T03:11:18.757Z,124
2016-05-19T03:12:18.760Z,132
2016-05-19T03:13:18.747Z,140
2016-05-19T03:14:18.750Z,148
2016-05-19T03:15:18.753Z,156
2016-05-19T03:16:18.739Z,168
2016-05-19T03:17:18.742Z,180
2016-05-19T03:18:18.745Z,188
2016-05-19T03:19:18.732Z,200
2016-05-19T03:20:18.735Z,212
2016-05-19T03:21:18.722Z,224
2016-05-19T03:22:18.724Z,236
2016-05-19T03:23:19.258Z,252
2016-05-19T03:24:18.729Z,264
2016-05-19T03:25:18.716Z,284
2016-05-19T03:26:18.563Z,308
2016-05-19T03:27:18.721Z,328
2016-05-19T03:28:18.709Z,344
2016-05-19T03:29:18.712Z,368
2016-05-19T03:30:18.559Z,388
2016-05-19T03:31:18.717Z,404
2016-05-19T03:32:18.704Z,428
2016-05-19T03:33:18.692Z,448
2016-05-19T03:34:18.538Z,468
2016-05-19T03:35:18.698Z,488
2016-05-19T03:36:18.543Z,512
2016-05-19T03:37:18.703Z,532
2016-05-19T03:38:18.689Z,552
2016-05-19T03:39:18.675Z,576
2016-05-19T03:40:18.523Z,596
2016-05-19T03:41:18.681Z,608
2016-05-19T03:42:18.684Z,628
2016-05-19T03:43:18.686Z,644
2016-05-19T03:44:18.674Z,664
2016-05-19T03:45:18.677Z,684
2016-05-19T03:46:18.679Z,708
2016-05-19T03:47:18.666Z,724
2016-05-19T03:48:18.653Z,724
2016-05-19T03:49:18.656Z,748
2016-05-19T03:50:18.784Z,764
2016-05-19T03:51:18.661Z,788
2016-05-19T03:52:19.164Z,816
2016-05-19T03:53:32.827Z,844
2016-05-19T03:54:18.983Z,860
2016-05-19T03:57:20.224Z,908
2016-05-19T03:58:19.243Z,932
2016-05-19T04:03:21.459Z,976
2016-05-19T04:04:19.306Z,976
2016-05-19T04:05:19.871Z,992
2016-05-19T04:06:18.623Z,1016
2016-05-19T04:07:19.408Z,1052
2016-05-19T04:08:18.754Z,1092
2016-05-19T04:09:18.601Z,1124
2016-05-19T04:10:18.604Z,1148
2016-05-19T04:11:18.450Z,1140
2016-05-19T04:12:20.625Z,1128
2016-05-19T04:13:20.628Z,1124
2016-05-19T04:14:19.989Z,1136
2016-05-19T04:15:19.163Z,1176
2016-05-19T04:16:19.057Z,1244
2016-05-19T04:17:18.638Z,1332
2016-05-19T04:18:19.047Z,1436
2016-05-19T04:19:18.565Z,1540
2016-05-19T04:20:18.271Z,1620
2016-05-19T04:21:18.585Z,1676
2016-05-19T04:22:18.260Z,1720
2016-05-19T04:23:18.576Z,1760
2016-05-19T04:24:18.579Z,1796
2016-05-19T04:25:18.253Z,1824
2016-05-19T04:26:18.412Z,1844
2016-05-19T04:27:18.571Z,1860
2016-05-19T04:28:18.574Z,1888
2016-05-19T04:29:19.171Z,1920
2016-05-19T04:30:19.548Z,1952
2016-05-19T04:32:20.147Z,2008
2016-05-19T04:44:18.539Z,3124
2016-05-19T04:45:18.525Z,3240
2016-05-19T04:46:18.388Z,3332
2016-05-19T04:47:18.374Z,3404
2016-05-19T04:48:18.519Z,3456
2016-05-19T04:55:18.350Z,3848
2016-05-19T04:56:18.508Z,3912
2016-05-19T04:57:18.338Z,3980
2016-05-19T04:58:18.342Z,4060
2016-05-19T04:59:18.188Z,4168
2016-05-19T05:00:18.488Z,4288
2016-05-19T05:01:18.522Z,4400
2016-05-19T05:02:18.493Z,4500
2016-05-19T05:03:18.496Z,4584
2016-05-19T05:04:18.482Z,4652
2016-05-19T05:05:18.329Z,4724
2016-05-19T05:06:18.488Z,4816
2016-05-19T05:07:18.335Z,4920
2016-05-19T05:09:19.434Z,5116
2016-05-19T05:10:18.781Z,5208
2016-05-19T05:11:19.236Z,5300
2016-05-19T05:12:19.942Z,5416
2016-05-19T05:38:18.246Z,7264
2016-05-19T05:39:18.452Z,7316
2016-05-19T05:40:18.440Z,7400
2016-05-19T05:41:18.442Z,7520
2016-05-19T05:42:18.445Z,7656
2016-05-19T05:43:18.448Z,7804
2016-05-19T05:44:18.435Z,7924
2016-05-19T05:45:18.437Z,8028
2016-05-19T05:46:18.440Z,8088
2016-05-19T05:47:18.286Z,8140
2016-05-19T05:48:18.289Z,8196
2016-05-19T05:49:18.447Z,8244
2016-05-19T05:50:18.436Z,8252
2016-05-19T05:51:18.438Z,8196
2016-05-19T05:52:18.128Z,8108
2016-05-19T05:53:20.365Z,8004
2016-05-19T05:54:18.446Z,7912
2016-05-19T05:55:18.433Z,7844
2016-05-19T05:56:18.436Z,7828
2016-05-19T05:57:18.454Z,7876
2016-05-19T05:58:18.441Z,7960
2016-05-19T05:59:18.427Z,8080
2016-05-19T06:00:18.430Z,8232
2016-05-19T06:01:18.433Z,8388
2016-05-19T06:02:18.452Z,8528
2016-05-19T06:03:18.283Z,8660
2016-05-19T06:04:18.426Z,8784
2016-05-19T06:05:18.444Z,8896
2016-05-19T06:06:18.432Z,8988
2016-05-19T06:07:18.277Z,9060
2016-05-19T06:08:18.452Z,9160
2016-05-19T06:09:18.439Z,9296
2016-05-19T06:10:18.426Z,9496
2016-05-19T06:11:18.429Z,9740
2016-05-19T06:12:18.275Z,10000
2016-05-19T06:13:18.434Z,10284
2016-05-19T06:14:18.421Z,10608
2016-05-19T06:15:18.268Z,10988
2016-05-19T06:16:18.131Z,11428
2016-05-19T06:17:18.273Z,11856
2016-05-19T06:18:18.432Z,12268
2016-05-19T06:19:18.434Z,12652
2016-05-19T06:20:18.422Z,13024
2016-05-19T06:21:18.439Z,13404
2016-05-19T06:22:18.428Z,13780
2016-05-19T06:23:18.133Z,14100
2016-05-19T06:24:18.433Z,14340
2016-05-19T06:25:18.123Z,14476
2016-05-19T06:26:18.439Z,14560
2016-05-19T06:28:19.083Z,14852
2016-05-19T06:29:19.680Z,15148
2016-05-19T06:30:19.074Z,15616
2016-05-19T06:31:33.017Z,15904
2016-05-19T06:32:18.736Z,16032
2016-05-19T06:33:18.691Z,16096
2016-05-19T06:34:18.491Z,16064
2016-05-19T06:35:18.447Z,16064
2016-05-19T06:36:18.449Z,16192
2016-05-19T06:37:18.452Z,16352
2016-05-19T06:38:18.454Z,16544
2016-05-19T06:39:18.707Z,16800
2016-05-19T06:40:19.210Z,17024
2016-05-19T06:41:20.307Z,17248
2016-05-19T06:42:20.028Z,17472
2016-05-19T06:43:19.421Z,17664
2016-05-19T06:44:18.627Z,17888
2016-05-19T06:45:18.865Z,18144
2016-05-19T06:46:18.773Z,18560
2016-05-19T06:47:18.854Z,19104
2016-05-19T06:48:18.310Z,19648
2016-05-19T06:49:18.562Z,20160
2016-05-19T06:50:18.471Z,20512
2016-05-19T06:51:19.817Z,20768
2016-05-19T06:52:18.461Z,20800
2016-05-19T06:53:18.339Z,20768
2016-05-19T06:54:19.045Z,20736
2016-05-19T06:55:18.485Z,20800
2016-05-19T06:56:18.316Z,20960
2016-05-19T06:57:18.506Z,21312
2016-05-19T06:58:18.494Z,21920
2016-05-19T06:59:18.323Z,22528
2016-05-19T07:00:18.342Z,22976
2016-05-19T07:01:18.485Z,23232
2016-05-19T07:02:18.488Z,23424
2016-05-19T07:03:18.334Z,24544
2016-05-19T07:04:18.509Z,23456
2016-05-19T07:05:18.496Z,23552
2016-05-19T07:06:18.515Z,24192
2016-05-19T07:07:18.360Z,25248
2016-05-19T07:08:18.504Z,26112
2016-05-19T07:09:18.382Z,27584
2016-05-19T07:10:18.525Z,29024
2016-05-19T07:11:18.371Z,28000
2016-05-19T07:12:18.390Z,27360
2016-05-19T07:13:18.376Z,27520
2016-05-19T07:14:18.536Z,28000
2016-05-19T07:15:18.539Z,28800
2016-05-19T07:16:18.556Z,29856
2016-05-19T07:17:18.559Z,30912
2016-05-19T07:18:18.562Z,31904
2016-05-19T07:19:18.425Z,32352
2016-05-19T07:20:18.567Z,32736
2016-05-19T07:21:18.586Z,34976
2016-05-19T07:22:18.589Z,35136
2016-05-19T07:23:18.935Z,33984
2016-05-19T07:24:18.609Z,35232
2016-05-19T07:25:18.612Z,35360
2016-05-19T07:26:18.615Z,35680
2016-05-19T07:27:18.461Z,37120
2016-05-19T07:28:18.620Z,46656
2016-05-19T07:29:18.623Z,61696
2016-05-19T07:30:18.642Z,41888
2016-05-19T07:31:18.660Z,39264
2016-05-19T07:32:21.366Z,38496
2016-05-19T07:33:18.680Z,40576
2016-05-19T07:34:18.668Z,40608
2016-05-19T07:35:18.358Z,37024
2016-05-19T07:36:18.689Z,36352
2016-05-19T07:37:18.801Z,38752
2016-05-19T07:38:19.132Z,38272
2016-05-19T07:39:18.712Z,36416
2016-05-19T07:40:18.731Z,35744
2016-05-19T07:41:18.734Z,36512
2016-05-19T07:42:18.736Z,39168
2016-05-19T07:43:18.770Z,38720
2016-05-19T07:44:18.773Z,41728
2016-05-19T07:45:18.775Z,41696
2016-05-19T07:46:20.185Z,53760
2016-05-19T07:47:32.968Z,54944
2016-05-19T07:49:19.021Z,43072
2016-05-19T07:51:18.839Z,49760
2016-05-19T07:52:18.935Z,52352
2016-05-19T07:53:19.125Z,56864
2016-05-19T07:54:18.878Z,59552
2016-05-19T07:55:34.161Z,50592
2016-05-19T07:57:19.011Z,45120
2016-05-19T07:58:19.295Z,41376
2016-05-19T08:00:19.160Z,43904
2016-05-19T08:01:19.459Z,50592
2016-05-19T08:02:19.821Z,60608
2016-05-19T08:03:18.980Z,56000
2016-05-19T08:04:19.482Z,51648
2016-05-19T08:05:19.016Z,50560
2016-05-19T08:06:19.269Z,47264
2016-05-19T08:07:19.022Z,53696
2016-05-19T08:08:19.635Z,45248
2016-05-19T08:09:21.388Z,44512
2016-05-19T08:10:19.312Z,58560
2016-05-19T08:11:19.643Z,56320
2016-05-19T08:12:19.113Z,59040
2016-05-19T08:13:19.538Z,43232
2016-05-19T08:14:19.119Z,45440
2016-05-19T08:15:19.121Z,42400
2016-05-19T08:16:19.265Z,44096
2016-05-19T08:17:19.159Z,42656
2016-05-19T08:18:19.177Z,46400
2016-05-19T08:19:19.179Z,47296
2016-05-19T08:20:19.198Z,46816
2016-05-19T08:21:19.216Z,50880
2016-05-19T08:22:19.062Z,58528
2016-05-19T08:23:19.753Z,56480
2016-05-19T08:24:19.255Z,42400
2016-05-19T08:25:19.273Z,43712
2016-05-19T08:26:19.275Z,44256
2016-05-19T08:27:19.310Z,53920
2016-05-19T08:28:19.313Z,54432
2016-05-19T08:29:19.331Z,58752
2016-05-19T08:30:19.178Z,62208
2016-05-19T08:31:19.368Z,54688
2016-05-19T08:32:19.371Z,44160
2016-05-19T08:33:19.374Z,40640
2016-05-19T08:34:19.422Z,39456
2016-05-19T08:35:19.411Z,41728
2016-05-19T08:36:19.116Z,44064
2016-05-19T08:37:19.463Z,42656
2016-05-19T08:38:19.465Z,54848
2016-05-19T08:39:19.874Z,67296
2016-05-19T08:40:19.485Z,71168
2016-05-19T08:41:19.504Z,73216
2016-05-19T08:42:19.538Z,75584
2016-05-19T08:43:19.541Z,75936
2016-05-19T08:44:19.544Z,72800
2016-05-19T08:45:19.562Z,69472
2016-05-19T08:46:19.580Z,64032
2016-05-19T08:47:19.582Z,46528
2016-05-19T08:48:19.617Z,26208
2016-05-19T08:49:19.634Z,21600
2016-05-19T08:50:19.481Z,21088
2016-05-19T08:51:19.484Z,20448
2016-05-19T08:52:19.659Z,19808
2016-05-19T08:53:19.380Z,18784
2016-05-19T08:54:20.101Z,17856
2016-05-19T08:55:19.433Z,17196
2016-05-19T08:56:19.717Z,16680
2016-05-19T08:57:19.734Z,16336
2016-05-19T08:58:19.737Z,16140
2016-05-19T08:59:19.599Z,16008
2016-05-19T09:00:19.617Z,15788
2016-05-19T09:01:19.777Z,15540
2016-05-19T09:02:19.780Z,15372
2016-05-19T09:03:19.814Z,15312
2016-05-19T09:04:19.878Z,15248
2016-05-19T09:05:20.381Z,15264
2016-05-19T09:06:19.838Z,15264
2016-05-19T09:07:34.168Z,15252
2016-05-19T09:08:20.076Z,15288
2016-05-19T09:09:19.735Z,15176
2016-05-19T09:10:19.879Z,14892
2016-05-19T09:11:19.897Z,14516
2016-05-19T09:12:19.743Z,14364
2016-05-19T09:13:19.903Z,14212
2016-05-19T09:14:20.218Z,14012
2016-05-19T09:15:20.126Z,13864
2016-05-19T09:16:20.083Z,13740
2016-05-19T09:17:21.476Z,13644
2016-05-19T09:18:21.120Z,13644
2016-05-19T09:19:20.418Z,13720
2016-05-19T09:20:19.813Z,13808
2016-05-19T09:21:20.065Z,13976
2016-05-19T09:22:20.739Z,14132
2016-05-19T09:23:20.086Z,14332
2016-05-19T09:24:20.182Z,14556
2016-05-19T09:25:20.045Z,14724
2016-05-19T09:26:19.859Z,14844
2016-05-19T09:27:22.378Z,15040
2016-05-19T09:28:20.021Z,15268
2016-05-19T09:29:20.024Z,15512
2016-05-19T09:30:21.089Z,15688
2016-05-19T09:31:20.483Z,15780
2016-05-19T09:32:20.423Z,15820
2016-05-19T09:33:20.081Z,15912
2016-05-19T09:34:20.069Z,16028
2016-05-19T09:35:20.071Z,16100
2016-05-19T09:36:19.933Z,16120
2016-05-19T09:37:20.091Z,16092
2016-05-19T09:38:20.345Z,16040
2016-05-19T09:39:20.302Z,15968
2016-05-19T09:40:20.100Z,15928
2016-05-19T09:41:20.103Z,15940
2016-05-19T09:42:20.121Z,15980
2016-05-19T09:43:19.952Z,16008
2016-05-19T09:44:20.158Z,16044
2016-05-19T09:45:20.129Z,16080
2016-05-19T09:46:20.148Z,16224
2016-05-19T09:47:20.135Z,16464
2016-05-19T09:48:20.154Z,16636
2016-05-19T09:49:20.156Z,16920
2016-05-19T09:50:20.002Z,17376
2016-05-19T09:51:20.005Z,17792
2016-05-19T09:52:20.164Z,17504
2016-05-19T09:53:20.182Z,17200
2016-05-19T09:54:20.763Z,16896
2016-05-19T09:55:19.890Z,16720
2016-05-19T09:56:20.190Z,16368
2016-05-19T09:57:20.193Z,15908
2016-05-19T09:58:20.211Z,15588
2016-05-19T09:59:20.230Z,15360
2016-05-19T10:00:20.217Z,15244
2016-05-19T10:01:20.078Z,15080
2016-05-19T10:02:20.253Z,14892
2016-05-19T10:03:20.084Z,14776
2016-05-19T10:04:20.087Z,14716
2016-05-19T10:05:20.246Z,14772
2016-05-19T10:06:20.264Z,14972
2016-05-19T10:07:20.267Z,15100
2016-05-19T10:08:20.255Z,15216
2016-05-19T10:09:20.460Z,15408
2016-05-19T10:10:20.135Z,15672
2016-05-19T10:11:20.293Z,15928
2016-05-19T10:12:20.030Z,16540
2016-05-19T10:13:20.314Z,17124
2016-05-19T10:14:20.317Z,17408
2016-05-19T10:15:20.163Z,17664
2016-05-19T10:16:20.182Z,17920
2016-05-19T10:17:20.185Z,17600
2016-05-19T10:18:20.202Z,17312
2016-05-19T10:19:20.346Z,16812
2016-05-19T10:20:20.208Z,16348
2016-05-19T10:21:20.368Z,15996
2016-05-19T10:22:20.213Z,15944
2016-05-19T10:23:20.873Z,16188
2016-05-19T10:24:20.312Z,16656
2016-05-19T10:25:21.518Z,17032
2016-05-19T10:26:34.724Z,16976
2016-05-19T10:27:20.774Z,16736
2016-05-19T10:28:34.573Z,16428
2016-05-19T10:29:20.764Z,16404
2016-05-19T10:30:20.423Z,16464
2016-05-19T10:31:20.425Z,16472
2016-05-19T10:32:21.537Z,16392
2016-05-19T10:33:22.150Z,16172
2016-05-19T10:34:21.043Z,15952
2016-05-19T10:35:21.014Z,15732
2016-05-19T10:36:21.736Z,15528
2016-05-19T10:37:20.457Z,15536
2016-05-19T10:38:21.585Z,15572
2016-05-19T10:39:21.650Z,15556
2016-05-19T10:40:21.341Z,15464
2016-05-19T10:41:20.499Z,15228
2016-05-19T10:42:20.736Z,14884
2016-05-19T10:43:20.505Z,14720
2016-05-19T10:44:20.601Z,14600
2016-05-19T10:45:21.588Z,14500
2016-05-19T10:46:22.232Z,14520
2016-05-19T10:47:21.531Z,14660
2016-05-19T10:48:20.549Z,14884
2016-05-19T10:49:21.271Z,15136
2016-05-19T10:50:21.367Z,15380
2016-05-19T10:51:20.573Z,15524
2016-05-19T10:52:20.576Z,15608
2016-05-19T10:53:20.719Z,15604
2016-05-19T10:54:20.596Z,15612
2016-05-19T10:55:20.584Z,15528
2016-05-19T10:56:20.446Z,15452
2016-05-19T10:57:20.620Z,15484
2016-05-19T10:58:20.309Z,15680
2016-05-19T10:59:20.470Z,16060
2016-05-19T11:00:20.473Z,16420
2016-05-19T11:01:20.631Z,16520
2016-05-19T11:02:20.634Z,16524
2016-05-19T11:03:20.652Z,16800
2016-05-19T11:04:20.498Z,17120
2016-05-19T11:05:20.657Z,17472
2016-05-19T11:06:20.675Z,17920
2016-05-19T11:07:20.678Z,18464
2016-05-19T11:08:20.369Z,18368
2016-05-19T11:09:20.544Z,18272
2016-05-19T11:10:20.530Z,18304
2016-05-19T11:11:20.704Z,18176
2016-05-19T11:12:20.551Z,18208
2016-05-19T11:13:20.711Z,18560
2016-05-19T11:14:20.713Z,19072
2016-05-19T11:15:20.731Z,19616
2016-05-19T11:16:20.733Z,20224
2016-05-19T11:17:20.580Z,20928
2016-05-19T11:18:20.738Z,20992
2016-05-19T11:19:20.601Z,20640
2016-05-19T11:20:20.760Z,20384
2016-05-19T11:21:20.779Z,20000
2016-05-19T11:22:20.624Z,19936
2016-05-19T11:23:20.784Z,19968
2016-05-19T11:24:20.662Z,20000
2016-05-19T11:25:20.805Z,19904
2016-05-19T11:26:20.823Z,19424
2016-05-19T11:27:20.826Z,18784
2016-05-19T11:28:20.829Z,18208
2016-05-19T11:29:20.848Z,17824
2016-05-19T11:30:20.865Z,17664
2016-05-19T11:31:20.853Z,17728
2016-05-19T11:32:20.855Z,18048
2016-05-19T11:33:20.873Z,18720
2016-05-19T11:34:20.875Z,19168
2016-05-19T11:35:20.878Z,19136
2016-05-19T11:36:20.584Z,18816
2016-05-19T11:37:20.900Z,18432
2016-05-19T11:38:20.761Z,18016
2016-05-19T11:39:20.920Z,17664
2016-05-19T11:40:20.922Z,17440
2016-05-19T11:41:20.925Z,17344
2016-05-19T11:42:21.039Z,17472
2016-05-19T11:43:24.635Z,17760
2016-05-19T11:44:20.637Z,18112
2016-05-19T11:46:21.002Z,19136
2016-05-19T11:47:20.855Z,19328
2016-05-19T11:48:21.054Z,19328
2016-05-19T11:49:21.128Z,19328
2016-05-19T11:50:21.156Z,19360
2016-05-19T11:51:22.401Z,19488
2016-05-19T11:52:22.281Z,19424
2016-05-19T11:53:21.251Z,18976
2016-05-19T11:54:21.768Z,18368
2016-05-19T11:55:21.644Z,18048
2016-05-19T11:56:22.286Z,17760
2016-05-19T11:57:22.311Z,17568
2016-05-19T11:58:21.881Z,17696
2016-05-19T11:59:21.499Z,17856
2016-05-19T12:00:21.258Z,18144
2016-05-19T12:01:21.688Z,18656
2016-05-19T12:02:21.427Z,18944
2016-05-19T12:03:21.525Z,19232
2016-05-19T12:04:22.185Z,19392
2016-05-19T12:05:21.409Z,19840
2016-05-19T12:06:22.742Z,19936
2016-05-19T12:07:21.292Z,20000
2016-05-19T12:08:21.452Z,19968
2016-05-19T12:09:22.002Z,20064
2016-05-19T12:10:21.458Z,20384
2016-05-19T12:11:21.321Z,20512
2016-05-19T12:12:21.543Z,20224
2016-05-19T12:13:21.499Z,19808
2016-05-19T12:14:21.518Z,19552
2016-05-19T12:15:22.021Z,19584
2016-05-19T12:16:21.525Z,19520
2016-05-19T12:17:21.371Z,18784
2016-05-19T12:18:21.530Z,17664
2016-05-19T12:19:21.549Z,16512
2016-05-19T12:20:21.582Z,15748
2016-05-19T12:21:21.553Z,15528
2016-05-19T12:22:21.571Z,15552
2016-05-19T12:23:21.574Z,15952
2016-05-19T12:24:21.905Z,16768
2016-05-19T12:25:21.579Z,17312
2016-05-19T12:26:21.442Z,17920
2016-05-19T12:27:21.601Z,18688
2016-05-19T12:28:21.463Z,18688
2016-05-19T12:29:21.621Z,18496
2016-05-19T12:30:21.640Z,18464
2016-05-19T12:31:21.643Z,18208
2016-05-19T12:32:21.474Z,18048
2016-05-19T12:33:21.492Z,18176
2016-05-19T12:34:21.510Z,18048
2016-05-19T12:35:21.653Z,18016
2016-05-19T12:36:21.672Z,17984
2016-05-19T12:37:21.675Z,17632
2016-05-19T12:38:21.709Z,17056
2016-05-19T12:39:21.383Z,16928
2016-05-19T12:40:21.730Z,16336
2016-05-19T12:41:21.717Z,15868
2016-05-19T12:42:21.392Z,15344
2016-05-19T12:43:21.566Z,14980
2016-05-19T12:44:21.725Z,14608
2016-05-19T12:45:21.743Z,14264
2016-05-19T12:46:21.746Z,13776
2016-05-19T12:47:21.749Z,13432
2016-05-19T12:48:21.751Z,13212
2016-05-19T12:49:21.613Z,13000
2016-05-19T12:50:21.788Z,12776
2016-05-19T12:51:21.775Z,12752
2016-05-19T12:52:21.652Z,12800
2016-05-19T12:53:21.827Z,12804
2016-05-19T12:54:21.986Z,12796
2016-05-19T12:55:21.801Z,12764
2016-05-19T12:56:21.663Z,12984
2016-05-19T12:57:21.822Z,13004
2016-05-19T12:58:21.668Z,13120
2016-05-19T12:59:21.828Z,13380
2016-05-19T13:00:21.690Z,13532
2016-05-19T13:01:36.787Z,13944
2016-05-19T13:02:21.851Z,14156
2016-05-19T13:03:21.854Z,14304
2016-05-19T13:04:22.012Z,14480
2016-05-19T13:05:22.078Z,14728
2016-05-19T13:06:21.581Z,15116
2016-05-19T13:07:21.568Z,15476
2016-05-19T13:08:21.899Z,15824
2016-05-19T13:09:22.808Z,16448
2016-05-19T13:11:21.938Z,17664
2016-05-19T13:12:22.566Z,17952
2016-05-19T13:13:22.319Z,18048
2016-05-19T13:14:22.697Z,18560
2016-05-19T13:15:22.652Z,19616
2016-05-19T13:16:22.122Z,20160
2016-05-19T13:17:23.141Z,20288
2016-05-19T13:18:24.942Z,20352
2016-05-19T13:19:21.975Z,20576
2016-05-19T13:20:22.056Z,20864
2016-05-19T13:21:21.965Z,20832
2016-05-19T13:22:21.999Z,20800
2016-05-19T13:23:27.174Z,20384
2016-05-19T13:24:21.848Z,19808
2016-05-19T13:25:22.476Z,19328
2016-05-19T13:26:22.510Z,18720
2016-05-19T13:27:22.013Z,18240
2016-05-19T13:28:22.813Z,17600
2016-05-19T13:29:22.064Z,16992
2016-05-19T13:30:22.207Z,16320
2016-05-19T13:31:21.882Z,15776
2016-05-19T13:32:22.057Z,15200
2016-05-19T13:33:22.059Z,14928
2016-05-19T13:34:21.921Z,14736
2016-05-19T13:35:22.096Z,14688
2016-05-19T13:36:22.115Z,14812
2016-05-19T13:37:22.101Z,14880
2016-05-19T13:38:22.120Z,14972
2016-05-19T13:39:22.623Z,15076
2016-05-19T13:40:22.141Z,15128
2016-05-19T13:41:21.987Z,15424
2016-05-19T13:42:22.131Z,15584
2016-05-19T13:43:22.009Z,16000
2016-05-19T13:44:22.152Z,16320
2016-05-19T13:45:22.186Z,16544
2016-05-19T13:46:22.173Z,16672
2016-05-19T13:47:22.019Z,16672
2016-05-19T13:48:21.881Z,16480
2016-05-19T13:49:22.197Z,16384
2016-05-19T13:50:22.043Z,16384
2016-05-19T13:51:22.217Z,16704
2016-05-19T13:52:22.064Z,17248
2016-05-19T13:53:26.191Z,17344
2016-05-19T13:54:22.304Z,17408
2016-05-19T13:55:22.119Z,17344
2016-05-19T13:56:21.949Z,17248
2016-05-19T13:57:22.108Z,17216
2016-05-19T13:58:22.127Z,17120
2016-05-19T13:59:21.973Z,17024
2016-05-19T14:00:22.132Z,16928
2016-05-19T14:01:22.134Z,16864
2016-05-19T14:02:22.154Z,16928
2016-05-19T14:03:22.312Z,16832
2016-05-19T14:04:22.315Z,16736
2016-05-19T14:05:22.334Z,16576
2016-05-19T14:06:22.179Z,16352
2016-05-19T14:07:22.339Z,16096
2016-05-19T14:08:25.403Z,15488
2016-05-19T14:09:22.375Z,15100
2016-05-19T14:10:22.379Z,14916
2016-05-19T14:11:22.225Z,14884
2016-05-19T14:12:22.242Z,14884
2016-05-19T14:13:22.449Z,14780
2016-05-19T14:14:22.404Z,14576
2016-05-19T14:15:22.422Z,14340
2016-05-19T14:16:22.129Z,14212
2016-05-19T14:17:22.412Z,14292
2016-05-19T14:18:28.181Z,14492
2016-05-19T14:19:24.277Z,14668
2016-05-19T14:21:23.408Z,15076